Donnington, United Kingdom
Current Conditions -  °F | °C
As of 12:50 PM on Wednesday 22 Oct 2014 (Local Time) from EGVN Reporting Station
Scattered Clouds Scattered Clouds  
Wind Chill: 55°   Ceiling: Unl
Heat Index: 55°   Visibility: 6mi
Dew Point: 43°   Wind: 8mph
Humidity: 63%   Direction: 250°WSW
Pressure: 30.27"   Gusts: NA
Location:  51.95°N, 1.72°W
Report Text: EGVN 221150Z 25007KT 9999 FEW030 SCT140 13/06 Q1025 NOSIG
Loading
Personal Weather Stations






























Interactive Weather Map
Tropical Storm Tracking
New forecast layout! Learn more

10-Day Weather Forecast

Advertisements
Track Severe Weather on mobile